sensor_id;sensor_type;location;lat;lon;timestamp;P1;durP1;ratioP1;P2;durP2;ratioP2
19985;SDS011;10154;52.474;10.768;2022-07-29T00:01:00;4.55;;;1.00;;
19985;SDS011;10154;52.474;10.768;2022-07-29T00:03:26;5.97;;;1.40;;
19985;SDS011;10154;52.474;10.768;2022-07-29T00:05:52;2.80;;;1.00;;
19985;SDS011;10154;52.474;10.768;2022-07-29T00:08:18;5.22;;;1.20;;
19985;SDS011;10154;52.474;10.768;2022-07-29T00:10:45;5.10;;;1.20;;
19985;SDS011;10154;52.474;10.768;2022-07-29T00:13:11;4.30;;;1.20;;
19985;SDS011;10154;52.474;10.768;2022-07-29T00:15:37;6.93;;;1.23;;
19985;SDS011;10154;52.474;10.768;2022-07-29T00:18:03;3.83;;;1.23;;
19985;SDS011;10154;52.474;10.768;2022-07-29T00:20:30;3.90;;;1.20;;
19985;SDS011;10154;52.474;10.768;2022-07-29T00:22:56;2.85;;;1.05;;
19985;SDS011;10154;52.474;10.768;2022-07-29T00:25:22;2.13;;;1.10;;
19985;SDS011;10154;52.474;10.768;2022-07-29T00:27:48;3.47;;;1.10;;
19985;SDS011;10154;52.474;10.768;2022-07-29T00:30:14;2.55;;;1.10;;
19985;SDS011;10154;52.474;10.768;2022-07-29T00:32:41;6.93;;;1.30;;
19985;SDS011;10154;52.474;10.768;2022-07-29T00:35:07;3.85;;;1.20;;
19985;SDS011;10154;52.474;10.768;2022-07-29T00:37:52;3.72;;;1.23;;
19985;SDS011;10154;52.474;10.768;2022-07-29T00:40:18;4.93;;;1.00;;
19985;SDS011;10154;52.474;10.768;2022-07-29T00:42:46;3.30;;;1.05;;
19985;SDS011;10154;52.474;10.768;2022-07-29T00:45:15;4.13;;;1.00;;
19985;SDS011;10154;52.474;10.768;2022-07-29T00:47:42;4.80;;;0.95;;
19985;SDS011;10154;52.474;10.768;2022-07-29T00:50:09;5.18;;;1.13;;
19985;SDS011;10154;52.474;10.768;2022-07-29T00:52:38;4.57;;;1.20;;
19985;SDS011;10154;52.474;10.768;2022-07-29T00:55:07;2.90;;;1.15;;
19985;SDS011;10154;52.474;10.768;2022-07-29T00:57:37;3.67;;;1.08;;
19985;SDS011;10154;52.474;10.768;2022-07-29T01:00:05;3.67;;;1.10;;
19985;SDS011;10154;52.474;10.768;2022-07-29T01:02:37;5.82;;;1.17;;
19985;SDS011;10154;52.474;10.768;2022-07-29T01:05:03;3.72;;;1.15;;
19985;SDS011;10154;52.474;10.768;2022-07-29T01:07:31;3.33;;;1.10;;
19985;SDS011;10154;52.474;10.768;2022-07-29T01:10:00;3.08;;;1.17;;
19985;SDS011;10154;52.474;10.768;2022-07-29T01:12:29;5.25;;;1.23;;
19985;SDS011;10154;52.474;10.768;2022-07-29T01:14:58;6.35;;;1.20;;
19985;SDS011;10154;52.474;10.768;2022-07-29T01:17:27;5.03;;;1.33;;
19985;SDS011;10154;52.474;10.768;2022-07-29T01:20:10;3.63;;;1.00;;
19985;SDS011;10154;52.474;10.768;2022-07-29T01:31:19;3.97;;;1.30;;
19985;SDS011;10154;52.474;10.768;2022-07-29T01:34:09;5.50;;;1.50;;
19985;SDS011;10154;52.474;10.768;2022-07-29T01:39:36;3.63;;;1.45;;
19985;SDS011;10154;52.474;10.768;2022-07-29T01:44:50;2.17;;;1.30;;
19985;SDS011;10154;52.474;10.768;2022-07-29T01:47:25;3.88;;;1.30;;
19985;SDS011;10154;52.474;10.768;2022-07-29T01:50:06;3.65;;;1.25;;
19985;SDS011;10154;52.474;10.768;2022-07-29T01:52:42;4.10;;;1.30;;
19985;SDS011;10154;52.474;10.768;2022-07-29T01:55:14;1.88;;;1.00;;
19985;SDS011;10154;52.474;10.768;2022-07-29T01:57:43;3.45;;;1.20;;
19985;SDS011;10154;52.474;10.768;2022-07-29T02:00:12;2.72;;;1.13;;
19985;SDS011;10154;52.474;10.768;2022-07-29T02:02:40;2.00;;;1.27;;
19985;SDS011;10154;52.474;10.768;2022-07-29T02:05:10;7.00;;;1.48;;
19985;SDS011;10154;52.474;10.768;2022-07-29T02:07:39;3.40;;;1.30;;
19985;SDS011;10154;52.474;10.768;2022-07-29T02:10:07;4.45;;;1.52;;
19985;SDS011;10154;52.474;10.768;2022-07-29T02:12:36;3.97;;;1.45;;
19985;SDS011;10154;52.474;10.768;2022-07-29T02:15:04;4.70;;;1.30;;
19985;SDS011;10154;52.474;10.768;2022-07-29T02:17:42;3.80;;;1.30;;
19985;SDS011;10154;52.474;10.768;2022-07-29T02:20:15;5.35;;;1.45;;
19985;SDS011;10154;52.474;10.768;2022-07-29T02:22:41;2.70;;;1.35;;
19985;SDS011;10154;52.474;10.768;2022-07-29T02:25:09;6.72;;;1.50;;
19985;SDS011;10154;52.474;10.768;2022-07-29T02:27:37;5.22;;;1.40;;
19985;SDS011;10154;52.474;10.768;2022-07-29T02:30:04;3.20;;;1.40;;
19985;SDS011;10154;52.474;10.768;2022-07-29T02:32:32;2.90;;;1.30;;
19985;SDS011;10154;52.474;10.768;2022-07-29T02:35:01;5.22;;;1.60;;
19985;SDS011;10154;52.474;10.768;2022-07-29T02:37:28;3.33;;;1.20;;
19985;SDS011;10154;52.474;10.768;2022-07-29T02:39:55;3.15;;;1.38;;
19985;SDS011;10154;52.474;10.768;2022-07-29T02:42:23;3.13;;;1.40;;
19985;SDS011;10154;52.474;10.768;2022-07-29T02:44:52;7.32;;;1.58;;
19985;SDS011;10154;52.474;10.768;2022-07-29T02:47:23;7.35;;;1.70;;
19985;SDS011;10154;52.474;10.768;2022-07-29T02:50:05;3.13;;;1.30;;
19985;SDS011;10154;52.474;10.768;2022-07-29T02:52:54;3.95;;;1.30;;
19985;SDS011;10154;52.474;10.768;2022-07-29T02:58:17;5.30;;;1.40;;
19985;SDS011;10154;52.474;10.768;2022-07-29T03:00:59;5.78;;;1.48;;
19985;SDS011;10154;52.474;10.768;2022-07-29T03:03:30;8.98;;;1.40;;
19985;SDS011;10154;52.474;10.768;2022-07-29T03:06:03;2.53;;;1.20;;
19985;SDS011;10154;52.474;10.768;2022-07-29T03:08:31;3.83;;;1.42;;
19985;SDS011;10154;52.474;10.768;2022-07-29T03:10:59;3.17;;;1.33;;
19985;SDS011;10154;52.474;10.768;2022-07-29T03:13:26;4.10;;;1.23;;
19985;SDS011;10154;52.474;10.768;2022-07-29T03:15:54;7.68;;;1.60;;
19985;SDS011;10154;52.474;10.768;2022-07-29T03:18:21;2.55;;;1.30;;
19985;SDS011;10154;52.474;10.768;2022-07-29T03:20:47;3.78;;;1.50;;
19985;SDS011;10154;52.474;10.768;2022-07-29T03:23:17;2.88;;;1.42;;
19985;SDS011;10154;52.474;10.768;2022-07-29T03:25:46;3.05;;;1.52;;
19985;SDS011;10154;52.474;10.768;2022-07-29T03:28:13;3.90;;;1.45;;
19985;SDS011;10154;52.474;10.768;2022-07-29T03:30:39;4.47;;;1.33;;
19985;SDS011;10154;52.474;10.768;2022-07-29T03:33:06;6.35;;;1.70;;
19985;SDS011;10154;52.474;10.768;2022-07-29T03:35:32;6.05;;;1.90;;
19985;SDS011;10154;52.474;10.768;2022-07-29T03:37:58;4.50;;;1.55;;
19985;SDS011;10154;52.474;10.768;2022-07-29T03:40:30;4.75;;;1.70;;
19985;SDS011;10154;52.474;10.768;2022-07-29T03:43:09;6.88;;;1.50;;
19985;SDS011;10154;52.474;10.768;2022-07-29T03:45:37;3.97;;;1.60;;
19985;SDS011;10154;52.474;10.768;2022-07-29T03:48:07;6.40;;;1.63;;
19985;SDS011;10154;52.474;10.768;2022-07-29T03:50:37;7.35;;;1.80;;
19985;SDS011;10154;52.474;10.768;2022-07-29T03:53:03;3.05;;;1.58;;
19985;SDS011;10154;52.474;10.768;2022-07-29T03:55:32;4.03;;;1.80;;
19985;SDS011;10154;52.474;10.768;2022-07-29T03:58:10;4.28;;;1.70;;
19985;SDS011;10154;52.474;10.768;2022-07-29T04:00:37;3.33;;;1.52;;
19985;SDS011;10154;52.474;10.768;2022-07-29T04:03:04;3.22;;;1.50;;
19985;SDS011;10154;52.474;10.768;2022-07-29T04:05:31;4.88;;;1.58;;
19985;SDS011;10154;52.474;10.768;2022-07-29T04:07:57;6.20;;;1.70;;
19985;SDS011;10154;52.474;10.768;2022-07-29T04:10:23;3.75;;;1.83;;
19985;SDS011;10154;52.474;10.768;2022-07-29T04:12:49;7.72;;;2.03;;
19985;SDS011;10154;52.474;10.768;2022-07-29T04:15:15;6.32;;;2.10;;
19985;SDS011;10154;52.474;10.768;2022-07-29T04:17:41;4.68;;;1.80;;
19985;SDS011;10154;52.474;10.768;2022-07-29T04:20:08;4.57;;;1.85;;
19985;SDS011;10154;52.474;10.768;2022-07-29T04:22:37;4.15;;;1.70;;
19985;SDS011;10154;52.474;10.768;2022-07-29T04:25:07;7.75;;;2.05;;
19985;SDS011;10154;52.474;10.768;2022-07-29T04:27:33;4.15;;;1.88;;
19985;SDS011;10154;52.474;10.768;2022-07-29T04:30:00;5.03;;;1.75;;
19985;SDS011;10154;52.474;10.768;2022-07-29T04:32:26;6.13;;;1.80;;
19985;SDS011;10154;52.474;10.768;2022-07-29T04:34:52;5.88;;;1.90;;
19985;SDS011;10154;52.474;10.768;2022-07-29T04:37:18;5.93;;;1.83;;
19985;SDS011;10154;52.474;10.768;2022-07-29T04:39:44;5.97;;;2.10;;
19985;SDS011;10154;52.474;10.768;2022-07-29T04:42:10;6.68;;;2.08;;
19985;SDS011;10154;52.474;10.768;2022-07-29T04:44:36;4.85;;;1.92;;
19985;SDS011;10154;52.474;10.768;2022-07-29T04:47:02;6.43;;;2.20;;
19985;SDS011;10154;52.474;10.768;2022-07-29T04:49:29;3.53;;;1.75;;
19985;SDS011;10154;52.474;10.768;2022-07-29T04:51:55;6.50;;;2.25;;
19985;SDS011;10154;52.474;10.768;2022-07-29T04:54:21;4.03;;;2.00;;
19985;SDS011;10154;52.474;10.768;2022-07-29T04:56:47;5.28;;;1.90;;
19985;SDS011;10154;52.474;10.768;2022-07-29T04:59:13;4.93;;;1.90;;
19985;SDS011;10154;52.474;10.768;2022-07-29T05:01:39;5.50;;;2.00;;
19985;SDS011;10154;52.474;10.768;2022-07-29T05:04:05;5.72;;;1.92;;
19985;SDS011;10154;52.474;10.768;2022-07-29T05:06:31;3.85;;;2.10;;
19985;SDS011;10154;52.474;10.768;2022-07-29T05:08:57;6.13;;;2.00;;
19985;SDS011;10154;52.474;10.768;2022-07-29T05:11:23;5.90;;;2.10;;
19985;SDS011;10154;52.474;10.768;2022-07-29T05:13:49;3.88;;;2.13;;
19985;SDS011;10154;52.474;10.768;2022-07-29T05:16:15;5.25;;;2.17;;
19985;SDS011;10154;52.474;10.768;2022-07-29T05:18:42;4.93;;;2.15;;
19985;SDS011;10154;52.474;10.768;2022-07-29T05:21:08;5.53;;;2.00;;
19985;SDS011;10154;52.474;10.768;2022-07-29T05:23:34;5.13;;;1.95;;
19985;SDS011;10154;52.474;10.768;2022-07-29T05:26:00;6.45;;;2.40;;
19985;SDS011;10154;52.474;10.768;2022-07-29T05:28:26;6.72;;;2.15;;
19985;SDS011;10154;52.474;10.768;2022-07-29T05:30:52;5.47;;;2.35;;
19985;SDS011;10154;52.474;10.768;2022-07-29T05:33:18;10.10;;;2.28;;
19985;SDS011;10154;52.474;10.768;2022-07-29T05:35:44;7.13;;;2.58;;
19985;SDS011;10154;52.474;10.768;2022-07-29T05:38:11;6.22;;;2.30;;
19985;SDS011;10154;52.474;10.768;2022-07-29T05:40:37;6.65;;;2.22;;
19985;SDS011;10154;52.474;10.768;2022-07-29T05:43:03;10.15;;;2.42;;
19985;SDS011;10154;52.474;10.768;2022-07-29T05:45:29;5.35;;;2.00;;
19985;SDS011;10154;52.474;10.768;2022-07-29T05:47:55;3.80;;;2.08;;
19985;SDS011;10154;52.474;10.768;2022-07-29T05:50:21;4.68;;;2.30;;
19985;SDS011;10154;52.474;10.768;2022-07-29T05:52:48;4.90;;;2.20;;
19985;SDS011;10154;52.474;10.768;2022-07-29T05:55:14;5.32;;;2.60;;
19985;SDS011;10154;52.474;10.768;2022-07-29T05:57:40;5.63;;;2.40;;
19985;SDS011;10154;52.474;10.768;2022-07-29T06:00:08;8.05;;;2.95;;
19985;SDS011;10154;52.474;10.768;2022-07-29T06:02:35;5.47;;;2.28;;
19985;SDS011;10154;52.474;10.768;2022-07-29T06:05:01;4.18;;;2.80;;
19985;SDS011;10154;52.474;10.768;2022-07-29T06:07:28;7.15;;;2.33;;
19985;SDS011;10154;52.474;10.768;2022-07-29T06:09:54;4.85;;;2.20;;
19985;SDS011;10154;52.474;10.768;2022-07-29T06:12:20;5.28;;;2.08;;
19985;SDS011;10154;52.474;10.768;2022-07-29T06:14:46;8.98;;;2.53;;
19985;SDS011;10154;52.474;10.768;2022-07-29T06:17:12;6.63;;;2.47;;
19985;SDS011;10154;52.474;10.768;2022-07-29T06:19:38;5.70;;;2.33;;
19985;SDS011;10154;52.474;10.768;2022-07-29T06:22:04;4.47;;;2.17;;
19985;SDS011;10154;52.474;10.768;2022-07-29T06:24:30;7.05;;;2.42;;
19985;SDS011;10154;52.474;10.768;2022-07-29T06:26:56;5.35;;;2.40;;
19985;SDS011;10154;52.474;10.768;2022-07-29T06:29:22;9.25;;;2.50;;
19985;SDS011;10154;52.474;10.768;2022-07-29T06:31:49;6.05;;;2.30;;
19985;SDS011;10154;52.474;10.768;2022-07-29T06:34:15;7.60;;;2.60;;
19985;SDS011;10154;52.474;10.768;2022-07-29T06:36:41;4.18;;;2.05;;
19985;SDS011;10154;52.474;10.768;2022-07-29T06:39:07;8.90;;;2.53;;
19985;SDS011;10154;52.474;10.768;2022-07-29T06:41:33;5.75;;;2.40;;
19985;SDS011;10154;52.474;10.768;2022-07-29T06:44:00;5.18;;;2.40;;
19985;SDS011;10154;52.474;10.768;2022-07-29T06:46:27;4.57;;;2.47;;
19985;SDS011;10154;52.474;10.768;2022-07-29T06:48:54;5.82;;;2.25;;
19985;SDS011;10154;52.474;10.768;2022-07-29T06:51:20;8.07;;;2.53;;
19985;SDS011;10154;52.474;10.768;2022-07-29T06:53:47;12.75;;;2.50;;
19985;SDS011;10154;52.474;10.768;2022-07-29T06:56:13;5.15;;;2.40;;
19985;SDS011;10154;52.474;10.768;2022-07-29T06:58:39;7.07;;;2.17;;
19985;SDS011;10154;52.474;10.768;2022-07-29T07:01:06;9.27;;;2.53;;
19985;SDS011;10154;52.474;10.768;2022-07-29T07:03:32;7.13;;;2.53;;
19985;SDS011;10154;52.474;10.768;2022-07-29T07:05:59;9.05;;;2.50;;
19985;SDS011;10154;52.474;10.768;2022-07-29T07:08:25;7.38;;;2.40;;
19985;SDS011;10154;52.474;10.768;2022-07-29T07:10:51;4.88;;;2.20;;
19985;SDS011;10154;52.474;10.768;2022-07-29T07:13:18;11.23;;;2.75;;
19985;SDS011;10154;52.474;10.768;2022-07-29T07:15:45;9.13;;;2.38;;
19985;SDS011;10154;52.474;10.768;2022-07-29T07:18:15;9.85;;;2.60;;
19985;SDS011;10154;52.474;10.768;2022-07-29T07:20:42;6.40;;;2.60;;
19985;SDS011;10154;52.474;10.768;2022-07-29T07:23:09;8.50;;;2.22;;
19985;SDS011;10154;52.474;10.768;2022-07-29T07:25:35;10.50;;;3.30;;
19985;SDS011;10154;52.474;10.768;2022-07-29T07:28:02;7.63;;;1.90;;
19985;SDS011;10154;52.474;10.768;2022-07-29T07:30:28;6.32;;;2.15;;
19985;SDS011;10154;52.474;10.768;2022-07-29T07:32:54;8.20;;;2.33;;
19985;SDS011;10154;52.474;10.768;2022-07-29T07:35:21;8.65;;;2.50;;
19985;SDS011;10154;52.474;10.768;2022-07-29T07:37:47;6.63;;;2.22;;
19985;SDS011;10154;52.474;10.768;2022-07-29T07:40:13;10.25;;;2.47;;
19985;SDS011;10154;52.474;10.768;2022-07-29T07:42:40;5.40;;;2.25;;
19985;SDS011;10154;52.474;10.768;2022-07-29T07:45:06;8.52;;;2.50;;
19985;SDS011;10154;52.474;10.768;2022-07-29T07:47:34;8.57;;;2.45;;
19985;SDS011;10154;52.474;10.768;2022-07-29T07:50:04;10.27;;;2.35;;
19985;SDS011;10154;52.474;10.768;2022-07-29T07:52:32;8.32;;;2.30;;
19985;SDS011;10154;52.474;10.768;2022-07-29T07:54:58;9.02;;;2.20;;
19985;SDS011;10154;52.474;10.768;2022-07-29T07:57:24;8.60;;;2.40;;
19985;SDS011;10154;52.474;10.768;2022-07-29T07:59:50;10.55;;;2.40;;
19985;SDS011;10154;52.474;10.768;2022-07-29T08:02:17;4.38;;;2.20;;
19985;SDS011;10154;52.474;10.768;2022-07-29T08:04:43;5.57;;;2.15;;
19985;SDS011;10154;52.474;10.768;2022-07-29T08:07:09;3.20;;;2.00;;
19985;SDS011;10154;52.474;10.768;2022-07-29T08:09:35;6.82;;;2.30;;
19985;SDS011;10154;52.474;10.768;2022-07-29T08:12:01;5.07;;;2.33;;
19985;SDS011;10154;52.474;10.768;2022-07-29T08:14:29;8.43;;;2.22;;
19985;SDS011;10154;52.474;10.768;2022-07-29T08:16:56;3.83;;;2.17;;
19985;SDS011;10154;52.474;10.768;2022-07-29T08:19:22;8.57;;;2.53;;
19985;SDS011;10154;52.474;10.768;2022-07-29T08:21:48;7.57;;;2.28;;
19985;SDS011;10154;52.474;10.768;2022-07-29T08:24:15;10.55;;;2.60;;
19985;SDS011;10154;52.474;10.768;2022-07-29T08:26:59;6.25;;;2.40;;
19985;SDS011;10154;52.474;10.768;2022-07-29T08:29:25;6.65;;;2.67;;
19985;SDS011;10154;52.474;10.768;2022-07-29T08:31:51;9.80;;;2.30;;
19985;SDS011;10154;52.474;10.768;2022-07-29T08:34:17;6.93;;;2.50;;
19985;SDS011;10154;52.474;10.768;2022-07-29T08:36:43;6.00;;;2.50;;
19985;SDS011;10154;52.474;10.768;2022-07-29T08:39:09;4.80;;;2.17;;
19985;SDS011;10154;52.474;10.768;2022-07-29T08:41:35;10.23;;;2.40;;
19985;SDS011;10154;52.474;10.768;2022-07-29T08:44:01;7.10;;;2.67;;
19985;SDS011;10154;52.474;10.768;2022-07-29T08:46:29;7.03;;;2.10;;
19985;SDS011;10154;52.474;10.768;2022-07-29T08:48:55;7.10;;;2.50;;
19985;SDS011;10154;52.474;10.768;2022-07-29T08:51:21;9.63;;;2.88;;
19985;SDS011;10154;52.474;10.768;2022-07-29T08:53:49;5.57;;;2.20;;
19985;SDS011;10154;52.474;10.768;2022-07-29T08:56:16;5.97;;;2.38;;
19985;SDS011;10154;52.474;10.768;2022-07-29T08:58:44;10.88;;;3.10;;
19985;SDS011;10154;52.474;10.768;2022-07-29T09:01:13;8.88;;;2.30;;
19985;SDS011;10154;52.474;10.768;2022-07-29T09:03:45;7.30;;;2.53;;
19985;SDS011;10154;52.474;10.768;2022-07-29T09:06:15;7.32;;;2.20;;
19985;SDS011;10154;52.474;10.768;2022-07-29T09:08:46;6.32;;;2.35;;
19985;SDS011;10154;52.474;10.768;2022-07-29T09:11:13;5.82;;;2.25;;
19985;SDS011;10154;52.474;10.768;2022-07-29T09:13:39;6.90;;;2.35;;
19985;SDS011;10154;52.474;10.768;2022-07-29T09:16:06;7.13;;;2.30;;
19985;SDS011;10154;52.474;10.768;2022-07-29T09:18:36;5.93;;;2.53;;
19985;SDS011;10154;52.474;10.768;2022-07-29T09:21:15;7.72;;;2.40;;
19985;SDS011;10154;52.474;10.768;2022-07-29T09:24:05;11.07;;;2.33;;
19985;SDS011;10154;52.474;10.768;2022-07-29T09:26:45;7.88;;;2.58;;
19985;SDS011;10154;52.474;10.768;2022-07-29T09:29:21;10.27;;;2.42;;
19985;SDS011;10154;52.474;10.768;2022-07-29T09:31:51;10.35;;;2.30;;
19985;SDS011;10154;52.474;10.768;2022-07-29T09:34:37;6.85;;;2.40;;
19985;SDS011;10154;52.474;10.768;2022-07-29T09:37:03;9.38;;;2.28;;
19985;SDS011;10154;52.474;10.768;2022-07-29T09:39:34;6.60;;;2.50;;
19985;SDS011;10154;52.474;10.768;2022-07-29T09:42:03;4.43;;;2.20;;
19985;SDS011;10154;52.474;10.768;2022-07-29T09:44:41;5.95;;;2.22;;
19985;SDS011;10154;52.474;10.768;2022-07-29T09:47:09;7.43;;;2.20;;
19985;SDS011;10154;52.474;10.768;2022-07-29T09:49:36;4.72;;;2.08;;
19985;SDS011;10154;52.474;10.768;2022-07-29T09:52:23;7.60;;;2.05;;
19985;SDS011;10154;52.474;10.768;2022-07-29T09:55:02;8.55;;;2.03;;
19985;SDS011;10154;52.474;10.768;2022-07-29T09:57:31;7.60;;;2.20;;
19985;SDS011;10154;52.474;10.768;2022-07-29T10:00:05;13.52;;;2.53;;
19985;SDS011;10154;52.474;10.768;2022-07-29T10:02:38;10.18;;;2.50;;
19985;SDS011;10154;52.474;10.768;2022-07-29T10:05:24;8.63;;;2.30;;
19985;SDS011;10154;52.474;10.768;2022-07-29T10:07:55;6.85;;;2.28;;
19985;SDS011;10154;52.474;10.768;2022-07-29T10:10:23;11.30;;;2.40;;
19985;SDS011;10154;52.474;10.768;2022-07-29T10:12:56;6.18;;;2.20;;
19985;SDS011;10154;52.474;10.768;2022-07-29T10:15:29;13.68;;;2.40;;
19985;SDS011;10154;52.474;10.768;2022-07-29T10:18:02;8.30;;;2.30;;
19985;SDS011;10154;52.474;10.768;2022-07-29T10:20:28;9.10;;;3.13;;
19985;SDS011;10154;52.474;10.768;2022-07-29T10:22:54;9.05;;;2.30;;
19985;SDS011;10154;52.474;10.768;2022-07-29T10:25:21;8.20;;;2.80;;
19985;SDS011;10154;52.474;10.768;2022-07-29T10:27:48;4.53;;;2.00;;
19985;SDS011;10154;52.474;10.768;2022-07-29T10:30:20;8.65;;;2.40;;
19985;SDS011;10154;52.474;10.768;2022-07-29T10:32:54;9.77;;;2.42;;
19985;SDS011;10154;52.474;10.768;2022-07-29T10:35:32;6.93;;;2.47;;
19985;SDS011;10154;52.474;10.768;2022-07-29T10:38:40;8.73;;;2.30;;
19985;SDS011;10154;52.474;10.768;2022-07-29T10:44:08;12.20;;;2.60;;
19985;SDS011;10154;52.474;10.768;2022-07-29T10:46:41;14.20;;;2.42;;
19985;SDS011;10154;52.474;10.768;2022-07-29T10:49:15;9.82;;;2.40;;
19985;SDS011;10154;52.474;10.768;2022-07-29T10:57:17;4.47;;;2.30;;
19985;SDS011;10154;52.474;10.768;2022-07-29T11:07:28;4.78;;;2.45;;
19985;SDS011;10154;52.474;10.768;2022-07-29T11:15:12;4.32;;;2.40;;
19985;SDS011;10154;52.474;10.768;2022-07-29T11:20:35;7.35;;;2.33;;
19985;SDS011;10154;52.474;10.768;2022-07-29T11:31:35;4.97;;;2.05;;
19985;SDS011;10154;52.474;10.768;2022-07-29T11:34:47;4.93;;;2.38;;
19985;SDS011;10154;52.474;10.768;2022-07-29T11:39:35;6.40;;;2.30;;
19985;SDS011;10154;52.474;10.768;2022-07-29T11:47:35;4.53;;;2.38;;
19985;SDS011;10154;52.474;10.768;2022-07-29T11:50:30;4.00;;;2.28;;
19985;SDS011;10154;52.474;10.768;2022-07-29T11:52:59;3.90;;;2.30;;
19985;SDS011;10154;52.474;10.768;2022-07-29T11:55:26;5.28;;;2.20;;
19985;SDS011;10154;52.474;10.768;2022-07-29T11:57:56;4.40;;;2.40;;
19985;SDS011;10154;52.474;10.768;2022-07-29T12:03:01;4.97;;;2.53;;
19985;SDS011;10154;52.474;10.768;2022-07-29T12:05:34;7.97;;;2.58;;
19985;SDS011;10154;52.474;10.768;2022-07-29T12:08:07;6.70;;;2.28;;
19985;SDS011;10154;52.474;10.768;2022-07-29T12:10:45;4.25;;;2.70;;
19985;SDS011;10154;52.474;10.768;2022-07-29T12:13:13;7.90;;;2.22;;
19985;SDS011;10154;52.474;10.768;2022-07-29T12:15:41;5.40;;;2.08;;
19985;SDS011;10154;52.474;10.768;2022-07-29T12:18:19;5.35;;;2.33;;
19985;SDS011;10154;52.474;10.768;2022-07-29T12:20:47;6.30;;;2.50;;
19985;SDS011;10154;52.474;10.768;2022-07-29T12:23:14;5.35;;;2.40;;
19985;SDS011;10154;52.474;10.768;2022-07-29T12:25:41;4.22;;;2.38;;
19985;SDS011;10154;52.474;10.768;2022-07-29T12:28:11;4.32;;;2.20;;
19985;SDS011;10154;52.474;10.768;2022-07-29T12:30:47;5.75;;;2.25;;
19985;SDS011;10154;52.474;10.768;2022-07-29T12:33:20;5.07;;;2.25;;
19985;SDS011;10154;52.474;10.768;2022-07-29T12:35:53;4.78;;;2.17;;
19985;SDS011;10154;52.474;10.768;2022-07-29T12:38:25;5.20;;;2.45;;
19985;SDS011;10154;52.474;10.768;2022-07-29T12:40:53;4.82;;;2.10;;
19985;SDS011;10154;52.474;10.768;2022-07-29T12:43:24;6.57;;;2.33;;
19985;SDS011;10154;52.474;10.768;2022-07-29T12:45:52;2.90;;;1.98;;
19985;SDS011;10154;52.474;10.768;2022-07-29T12:48:36;6.15;;;1.95;;
19985;SDS011;10154;52.474;10.768;2022-07-29T12:51:05;6.25;;;2.30;;
19985;SDS011;10154;52.474;10.768;2022-07-29T12:53:32;5.53;;;2.00;;
19985;SDS011;10154;52.474;10.768;2022-07-29T12:56:00;5.78;;;2.17;;
19985;SDS011;10154;52.474;10.768;2022-07-29T13:01:14;4.70;;;2.00;;
19985;SDS011;10154;52.474;10.768;2022-07-29T13:03:56;6.82;;;2.17;;
19985;SDS011;10154;52.474;10.768;2022-07-29T13:06:38;6.22;;;2.20;;
19985;SDS011;10154;52.474;10.768;2022-07-29T13:09:11;4.18;;;2.10;;
19985;SDS011;10154;52.474;10.768;2022-07-29T13:11:48;7.20;;;1.92;;
19985;SDS011;10154;52.474;10.768;2022-07-29T13:14:30;4.40;;;2.17;;
19985;SDS011;10154;52.474;10.768;2022-07-29T13:17:05;3.92;;;1.80;;
19985;SDS011;10154;52.474;10.768;2022-07-29T13:22:11;6.32;;;1.90;;
19985;SDS011;10154;52.474;10.768;2022-07-29T13:24:47;7.00;;;2.00;;
19985;SDS011;10154;52.474;10.768;2022-07-29T13:27:22;4.18;;;1.88;;
19985;SDS011;10154;52.474;10.768;2022-07-29T13:29:50;3.08;;;1.85;;
19985;SDS011;10154;52.474;10.768;2022-07-29T13:32:18;4.28;;;2.20;;
19985;SDS011;10154;52.474;10.768;2022-07-29T13:34:45;4.47;;;1.75;;
19985;SDS011;10154;52.474;10.768;2022-07-29T13:37:11;5.68;;;2.30;;
19985;SDS011;10154;52.474;10.768;2022-07-29T13:39:38;6.28;;;2.25;;
19985;SDS011;10154;52.474;10.768;2022-07-29T13:42:05;12.13;;;2.33;;
19985;SDS011;10154;52.474;10.768;2022-07-29T13:44:33;8.13;;;2.08;;
19985;SDS011;10154;52.474;10.768;2022-07-29T13:47:00;4.55;;;1.98;;
19985;SDS011;10154;52.474;10.768;2022-07-29T13:49:26;5.55;;;2.15;;
19985;SDS011;10154;52.474;10.768;2022-07-29T13:51:53;6.07;;;2.00;;
19985;SDS011;10154;52.474;10.768;2022-07-29T13:54:19;6.75;;;2.28;;
19985;SDS011;10154;52.474;10.768;2022-07-29T13:56:45;3.50;;;1.90;;
19985;SDS011;10154;52.474;10.768;2022-07-29T13:59:12;4.07;;;1.92;;
19985;SDS011;10154;52.474;10.768;2022-07-29T14:01:38;4.72;;;1.85;;
19985;SDS011;10154;52.474;10.768;2022-07-29T14:04:08;5.78;;;2.20;;
19985;SDS011;10154;52.474;10.768;2022-07-29T14:06:35;3.35;;;1.98;;
19985;SDS011;10154;52.474;10.768;2022-07-29T14:09:02;3.67;;;2.05;;
19985;SDS011;10154;52.474;10.768;2022-07-29T14:11:35;3.40;;;2.10;;
19985;SDS011;10154;52.474;10.768;2022-07-29T14:14:03;6.88;;;2.28;;
19985;SDS011;10154;52.474;10.768;2022-07-29T14:16:29;5.75;;;2.15;;
19985;SDS011;10154;52.474;10.768;2022-07-29T14:18:55;9.23;;;2.08;;
19985;SDS011;10154;52.474;10.768;2022-07-29T14:21:22;6.97;;;2.10;;
19985;SDS011;10154;52.474;10.768;2022-07-29T14:23:48;2.78;;;1.90;;
19985;SDS011;10154;52.474;10.768;2022-07-29T14:26:14;3.88;;;2.17;;
19985;SDS011;10154;52.474;10.768;2022-07-29T14:28:40;5.07;;;1.98;;
19985;SDS011;10154;52.474;10.768;2022-07-29T14:31:06;5.75;;;2.38;;
19985;SDS011;10154;52.474;10.768;2022-07-29T14:33:32;4.00;;;1.90;;
19985;SDS011;10154;52.474;10.768;2022-07-29T14:35:58;3.95;;;2.22;;
19985;SDS011;10154;52.474;10.768;2022-07-29T14:38:24;9.55;;;2.70;;
19985;SDS011;10154;52.474;10.768;2022-07-29T14:40:50;13.70;;;2.30;;
19985;SDS011;10154;52.474;10.768;2022-07-29T14:43:17;6.30;;;2.60;;
19985;SDS011;10154;52.474;10.768;2022-07-29T14:45:43;4.15;;;2.25;;
19985;SDS011;10154;52.474;10.768;2022-07-29T14:48:09;9.43;;;2.35;;
19985;SDS011;10154;52.474;10.768;2022-07-29T14:50:36;4.78;;;2.22;;
19985;SDS011;10154;52.474;10.768;2022-07-29T14:53:03;5.82;;;2.20;;
19985;SDS011;10154;52.474;10.768;2022-07-29T14:55:29;6.00;;;2.30;;
19985;SDS011;10154;52.474;10.768;2022-07-29T14:57:55;4.13;;;2.13;;
19985;SDS011;10154;52.474;10.768;2022-07-29T15:00:21;3.35;;;2.00;;
19985;SDS011;10154;52.474;10.768;2022-07-29T15:02:48;8.15;;;2.28;;
19985;SDS011;10154;52.474;10.768;2022-07-29T15:05:14;3.35;;;2.03;;
19985;SDS011;10154;52.474;10.768;2022-07-29T15:11:21;5.03;;;1.98;;
19985;SDS011;10154;52.474;10.768;2022-07-29T15:13:47;6.45;;;2.10;;
19985;SDS011;10154;52.474;10.768;2022-07-29T15:16:13;9.13;;;2.20;;
19985;SDS011;10154;52.474;10.768;2022-07-29T15:18:39;4.75;;;2.20;;
19985;SDS011;10154;52.474;10.768;2022-07-29T15:21:06;10.55;;;2.58;;
19985;SDS011;10154;52.474;10.768;2022-07-29T15:23:32;6.63;;;2.35;;
19985;SDS011;10154;52.474;10.768;2022-07-29T15:26:01;7.60;;;1.80;;
19985;SDS011;10154;52.474;10.768;2022-07-29T15:28:28;6.85;;;2.40;;
19985;SDS011;10154;52.474;10.768;2022-07-29T15:30:54;5.97;;;2.22;;
19985;SDS011;10154;52.474;10.768;2022-07-29T15:33:20;5.70;;;1.90;;
19985;SDS011;10154;52.474;10.768;2022-07-29T15:35:46;4.30;;;2.10;;
19985;SDS011;10154;52.474;10.768;2022-07-29T15:38:13;6.70;;;2.13;;
19985;SDS011;10154;52.474;10.768;2022-07-29T15:40:40;5.68;;;2.20;;
19985;SDS011;10154;52.474;10.768;2022-07-29T15:43:08;5.95;;;2.33;;
19985;SDS011;10154;52.474;10.768;2022-07-29T15:45:35;8.07;;;2.03;;
19985;SDS011;10154;52.474;10.768;2022-07-29T15:48:03;3.67;;;2.08;;
19985;SDS011;10154;52.474;10.768;2022-07-29T15:50:31;4.82;;;1.92;;
19985;SDS011;10154;52.474;10.768;2022-07-29T15:52:57;6.68;;;2.00;;